Randolph Center, Vermont
Current Conditions -  °F | °C
As of 11:51 PM on Monday 20 Oct 2014 (Local Time) from KMPV Reporting Station
Broken Clouds Broken Clouds  
Wind Chill: 38°   Ceiling: 6500
Heat Index: 38°   Visibility: 10mi
Dew Point: 36°   Wind: 0mph
Humidity: 93%   Direction: NA
Pressure: 29.98"   Gusts: NA
Location:  43.94°N, 72.61°W
Report Text: KMPV 210351Z AUTO 00000KT 10SM BKN065 03/02 A2998 RMK AO2 SLP162 T00330022 $
Loading
Personal Weather Stations






























Interactive Weather Map
Tropical Storm Tracking
New forecast layout! Learn more

10-Day Weather Forecast

Advertisements
Track Severe Weather on mobile